createdAt,value
2022-12-23T00:01:27.072Z,94.28
2022-12-23T00:06:26.914Z,94.19
2022-12-23T00:11:26.867Z,94.25
2022-12-23T00:16:26.423Z,94.32
2022-12-23T00:21:25.842Z,94.10
2022-12-23T00:26:28.540Z,94.14
2022-12-23T00:31:29.251Z,94.21
2022-12-23T00:36:33.058Z,94.23
2022-12-23T00:41:50.758Z,94.18
2022-12-23T00:46:51.077Z,94.26
2022-12-23T00:51:50.528Z,94.21
2022-12-23T00:56:53.791Z,94.18
2022-12-23T01:02:11.414Z,94.10
2022-12-23T01:07:12.710Z,94.39
2022-12-23T01:12:12.554Z,94.64
2022-12-23T01:17:13.528Z,94.79
2022-12-23T01:22:13.241Z,94.78
2022-12-23T01:27:13.769Z,94.98
2022-12-23T01:32:13.480Z,94.82
2022-12-23T01:37:13.447Z,94.88
2022-12-23T01:42:49.806Z,94.70
2022-12-23T01:47:55.063Z,94.84
2022-12-23T01:53:08.052Z,94.80
2022-12-23T01:58:14.701Z,94.91
2022-12-23T02:03:32.049Z,94.95
2022-12-23T02:08:50.293Z,94.77
2022-12-23T02:14:21.830Z,94.59
2022-12-23T02:19:46.168Z,94.58
2022-12-23T02:25:38.163Z,94.72
2022-12-23T02:30:50.150Z,94.71
2022-12-23T02:36:04.477Z,94.67
2022-12-23T02:41:16.733Z,94.96
2022-12-23T02:46:25.242Z,94.67
2022-12-23T02:51:29.315Z,94.52
2022-12-23T02:56:33.156Z,94.48
2022-12-23T03:01:36.811Z,94.69
2022-12-23T03:06:42.355Z,94.67
2022-12-23T03:11:57.520Z,94.47
2022-12-23T03:17:14.690Z,94.63
2022-12-23T03:22:26.790Z,94.64
2022-12-23T03:27:33.051Z,94.44
2022-12-23T03:32:38.312Z,94.39
2022-12-23T03:37:49.763Z,94.45
2022-12-23T03:42:55.526Z,94.27
2022-12-23T03:48:02.382Z,93.96
2022-12-23T03:53:09.195Z,94.00
2022-12-23T03:58:21.240Z,93.99
2022-12-23T04:03:30.986Z,94.01
2022-12-23T04:08:35.837Z,94.07
2022-12-23T04:13:35.743Z,94.10
2022-12-23T04:18:35.749Z,94.17
2022-12-23T04:23:34.904Z,94.11
2022-12-23T04:28:35.107Z,93.91
2022-12-23T04:33:34.488Z,93.72
2022-12-23T04:38:34.422Z,93.65
2022-12-23T04:43:33.868Z,93.66
2022-12-23T04:48:33.927Z,93.78
2022-12-23T04:53:33.312Z,93.75
2022-12-23T04:58:32.905Z,93.81
2022-12-23T05:03:31.605Z,93.75
2022-12-23T05:08:31.344Z,93.51
2022-12-23T05:13:31.098Z,93.43
2022-12-23T05:18:30.800Z,93.46
2022-12-23T05:23:30.892Z,93.32
2022-12-23T05:28:29.979Z,93.30
2022-12-23T05:33:29.841Z,93.38
2022-12-23T05:38:29.197Z,93.47
2022-12-23T05:43:30.478Z,93.55
2022-12-23T05:48:30.826Z,93.47
2022-12-23T05:53:30.306Z,93.33
2022-12-23T05:58:29.410Z,93.19
2022-12-23T06:03:28.913Z,93.13
2022-12-23T06:08:28.651Z,93.29
2022-12-23T06:13:28.474Z,93.30
2022-12-23T06:18:27.608Z,93.28
2022-12-23T06:23:27.552Z,93.40
2022-12-23T06:28:26.516Z,93.89
2022-12-23T06:33:27.467Z,93.88
2022-12-23T06:38:27.423Z,93.81
2022-12-23T06:43:26.843Z,93.98
2022-12-23T06:48:26.087Z,94.15
2022-12-23T06:53:25.347Z,94.13
2022-12-23T06:58:25.824Z,94.24
2022-12-23T07:03:26.136Z,94.15
2022-12-23T07:08:26.454Z,94.24
2022-12-23T07:13:25.835Z,94.22
2022-12-23T07:18:27.316Z,94.17
2022-12-23T07:23:26.625Z,94.15
2022-12-23T07:28:27.132Z,94.07
2022-12-23T07:33:26.734Z,94.11
2022-12-23T07:38:25.986Z,93.96
2022-12-23T07:43:25.986Z,93.91
2022-12-23T07:48:25.468Z,93.91
2022-12-23T07:53:24.844Z,93.82
2022-12-23T07:58:25.436Z,93.78
2022-12-23T08:03:25.510Z,93.70
2022-12-23T08:08:24.718Z,93.43
2022-12-23T08:13:23.498Z,93.39
2022-12-23T08:18:22.604Z,93.36
2022-12-23T08:23:25.024Z,93.36
2022-12-23T08:28:28.164Z,93.39
2022-12-23T08:33:27.893Z,93.16
2022-12-23T08:38:27.322Z,93.09
2022-12-23T08:43:31.836Z,92.90
2022-12-23T08:48:35.408Z,92.56
2022-12-23T08:53:35.683Z,92.65
2022-12-23T08:58:37.375Z,92.54
2022-12-23T09:03:38.018Z,92.50
2022-12-23T09:08:38.084Z,92.70
2022-12-23T09:13:37.095Z,92.73
2022-12-23T09:18:37.203Z,92.56
2022-12-23T09:23:37.499Z,92.41
2022-12-23T09:28:37.711Z,92.08
2022-12-23T09:33:37.886Z,92.14
2022-12-23T09:38:39.175Z,91.76
2022-12-23T09:43:54.362Z,91.91
2022-12-23T09:49:05.161Z,92.10
2022-12-23T09:54:16.921Z,92.06
2022-12-23T09:59:39.732Z,92.11
2022-12-23T10:05:04.667Z,92.07
2022-12-23T10:10:16.559Z,92.13
2022-12-23T10:15:30.238Z,92.14
2022-12-23T10:20:44.443Z,92.11
2022-12-23T10:25:53.437Z,92.08
2022-12-23T10:36:38.320Z,91.98
2022-12-23T10:41:50.547Z,91.95
2022-12-23T10:47:04.782Z,91.89
2022-12-23T10:52:13.529Z,91.86
2022-12-23T10:57:15.893Z,91.86
2022-12-23T11:02:44.367Z,91.84
2022-12-23T11:07:46.168Z,91.84
2022-12-23T11:12:49.865Z,91.86
2022-12-23T11:18:04.129Z,91.85
2022-12-23T11:23:06.548Z,91.82
2022-12-23T11:28:14.451Z,91.85
2022-12-23T11:33:27.360Z,91.87
2022-12-23T11:38:26.811Z,91.83
2022-12-23T11:43:29.973Z,91.77
2022-12-23T11:48:35.072Z,91.76
2022-12-23T11:53:36.931Z,91.71
2022-12-23T11:58:48.084Z,91.65
2022-12-23T12:03:55.448Z,91.63
2022-12-23T12:08:59.228Z,91.56
2022-12-23T12:14:04.723Z,91.58
2022-12-23T12:19:12.142Z,91.59
2022-12-23T12:24:20.030Z,91.63
2022-12-23T12:29:30.125Z,91.66
2022-12-23T12:34:53.315Z,91.70
2022-12-23T12:40:01.551Z,91.71
2022-12-23T12:45:16.394Z,91.73
2022-12-23T12:50:23.581Z,91.77
2022-12-23T12:55:34.557Z,91.80
2022-12-23T13:00:45.155Z,91.84
2022-12-23T13:06:01.270Z,91.88
2022-12-23T13:11:07.299Z,91.93
2022-12-23T13:16:23.731Z,91.93
2022-12-23T13:21:33.455Z,92.05
2022-12-23T13:26:48.054Z,92.18
2022-12-23T13:31:59.695Z,92.32
2022-12-23T13:37:10.180Z,92.43
2022-12-23T13:42:15.428Z,92.43
2022-12-23T13:47:26.089Z,92.50
2022-12-23T13:52:41.771Z,92.73
2022-12-23T13:57:57.198Z,92.76
2022-12-23T14:03:18.574Z,92.71
2022-12-23T14:08:32.905Z,92.78
2022-12-23T14:13:41.172Z,92.84
2022-12-23T14:19:02.961Z,92.90
2022-12-23T14:24:37.088Z,92.93
2022-12-23T14:30:06.855Z,92.88
2022-12-23T14:35:48.692Z,92.86
2022-12-23T14:41:39.760Z,92.92
2022-12-23T14:47:02.320Z,92.95
2022-12-23T14:52:45.195Z,93.07
2022-12-23T14:57:46.603Z,93.27
2022-12-23T15:02:47.134Z,93.39
2022-12-23T15:07:50.223Z,93.43
2022-12-23T15:12:54.194Z,93.69
2022-12-23T15:18:06.169Z,94.02
2022-12-23T15:23:12.470Z,94.38
2022-12-23T15:28:22.902Z,94.28
2022-12-23T15:38:46.668Z,94.53
2022-12-23T15:43:47.602Z,94.47
2022-12-23T15:48:51.399Z,94.82
2022-12-23T15:53:55.953Z,94.79
2022-12-23T15:58:56.770Z,94.88
2022-12-23T16:04:00.394Z,94.97
2022-12-23T16:09:08.080Z,94.97
2022-12-23T16:14:40.363Z,95.19
2022-12-23T16:19:46.576Z,95.21
2022-12-23T16:24:53.459Z,95.31
2022-12-23T16:29:57.487Z,95.27
2022-12-23T16:34:57.047Z,95.44
2022-12-23T16:39:56.983Z,95.35
2022-12-23T16:44:58.398Z,95.37
2022-12-23T16:49:58.370Z,95.24
2022-12-23T16:54:57.808Z,95.16
2022-12-23T16:59:58.532Z,94.98
2022-12-23T17:04:57.963Z,94.90
2022-12-23T17:09:57.959Z,94.89
2022-12-23T17:14:58.056Z,94.84
2022-12-23T17:19:59.537Z,94.88
2022-12-23T17:24:58.482Z,94.82
2022-12-23T17:29:58.028Z,94.60
2022-12-23T17:34:57.692Z,94.56
2022-12-23T17:39:56.646Z,94.32
2022-12-23T17:44:56.010Z,94.28
2022-12-23T17:49:54.681Z,94.03
2022-12-23T17:54:56.557Z,93.92
2022-12-23T17:59:57.119Z,94.12
2022-12-23T18:04:56.881Z,93.98
2022-12-23T18:09:56.446Z,94.12
2022-12-23T18:14:56.416Z,94.01
2022-12-23T18:19:55.784Z,93.98
2022-12-23T18:24:59.379Z,93.88
2022-12-23T18:29:59.405Z,93.75
2022-12-23T18:34:59.341Z,93.78
2022-12-23T18:39:59.817Z,93.66
2022-12-23T18:44:59.299Z,93.80
2022-12-23T18:49:58.409Z,93.78
2022-12-23T18:54:58.499Z,93.68
2022-12-23T18:59:59.206Z,93.80
2022-12-23T19:04:58.571Z,93.69
2022-12-23T19:09:59.042Z,93.49
2022-12-23T19:14:58.361Z,93.32
2022-12-23T19:20:00.557Z,93.39
2022-12-23T19:25:05.885Z,93.46
2022-12-23T19:30:07.097Z,93.51
2022-12-23T19:35:07.039Z,93.50
2022-12-23T19:40:12.773Z,93.45
2022-12-23T19:45:14.732Z,93.57
2022-12-23T19:50:15.678Z,93.44
2022-12-23T19:55:15.900Z,93.43
2022-12-23T20:00:18.748Z,93.51
2022-12-23T20:05:17.587Z,93.51
2022-12-23T20:10:18.454Z,93.54
2022-12-23T20:15:19.684Z,93.56
2022-12-23T20:20:20.268Z,93.58
2022-12-23T20:25:19.844Z,93.62
2022-12-23T20:30:19.478Z,93.62
2022-12-23T20:35:20.784Z,93.62
2022-12-23T20:40:20.862Z,93.64
2022-12-23T20:45:21.098Z,93.68
2022-12-23T20:50:21.886Z,93.68
2022-12-23T20:55:21.645Z,93.65
2022-12-23T21:00:23.169Z,93.68
2022-12-23T21:05:23.315Z,93.73
2022-12-23T21:10:22.951Z,93.79
2022-12-23T21:15:23.183Z,93.75
2022-12-23T21:20:23.041Z,93.68
2022-12-23T21:25:23.383Z,93.62
2022-12-23T21:30:23.240Z,93.59
2022-12-23T21:35:23.157Z,93.53
2022-12-23T21:40:23.676Z,93.51
2022-12-23T21:45:23.207Z,93.61
2022-12-23T21:50:23.963Z,93.63
2022-12-23T21:55:30.627Z,93.59
2022-12-23T22:00:29.776Z,93.60
2022-12-23T22:05:31.498Z,93.60
2022-12-23T22:10:31.541Z,93.63
2022-12-23T22:15:33.306Z,93.66
2022-12-23T22:20:33.350Z,93.67
2022-12-23T22:25:32.255Z,93.65
2022-12-23T22:30:32.279Z,93.66
2022-12-23T22:35:31.545Z,93.68
2022-12-23T22:40:30.632Z,93.66
2022-12-23T22:45:29.761Z,93.67
2022-12-23T22:50:29.625Z,93.68
2022-12-23T22:55:28.975Z,93.68
2022-12-23T23:00:28.997Z,93.68
2022-12-23T23:05:28.060Z,93.67
2022-12-23T23:10:27.396Z,93.68
2022-12-23T23:15:27.306Z,93.67
2022-12-23T23:20:28.371Z,93.66
2022-12-23T23:25:29.845Z,93.68
2022-12-23T23:30:29.296Z,93.68
2022-12-23T23:35:31.269Z,93.67
2022-12-23T23:40:30.993Z,93.65
2022-12-23T23:45:32.834Z,93.65
2022-12-23T23:50:35.625Z,93.63
2022-12-23T23:55:35.435Z,93.62
